Time;durP1;ratioP1;P1;durP2;ratioP2;P2;SDS_P1;SDS_P2;PMS_P1;PMS_P2;Temp;Humidity;BMP_temperature;BMP_pressure;BME280_temperature;BME280_humidity;BME280_pressure;Samples;Min_cycle;Max_cycle;Signal;HPM_P1;HPM_P2
2023/10/29 00:01:02;;;;;;;;;;;;;;;;;;5006988;28;20043;-84
2023/10/29 00:03:28;;;;;;;;;;;;;;;;;;5001948;28;19929;-84
2023/10/29 00:05:54;;;;;;;;;;;;;;;;;;5004158;28;19967;-83
2023/10/29 00:08:20;;;;;;;;;;;;;;;;;;5002393;28;20025;-84
2023/10/29 00:10:46;;;;;;;;;;;;;;;;;;4982718;28;20715;-85
2023/10/29 00:13:12;;;;;;;;;;;;;;;;;;4986082;28;19929;-83
2023/10/29 00:15:38;;;;;;;;;;;;;;;;;;5002094;28;20428;-82
2023/10/29 00:18:08;;;;;;;;;;;;;;;;;;4999698;28;19929;-83
2023/10/29 00:20:37;;;;;;;;;;;;;;;;;;4990213;28;19929;-85
2023/10/29 00:23:03;;;;;;;;;;;;;;;;;;4989913;28;20472;-83
2023/10/29 00:25:29;;;;;;;;;;;;;;;;;;5009456;28;19929;-83
2023/10/29 00:27:55;;;;;;;;;;;;;;;;;;5000526;28;19928;-82
2023/10/29 00:30:21;;;;;;;;;;;;;;;;;;5008052;28;19929;-82
2023/10/29 00:32:47;;;;;;;;;;;;;;;;;;5008600;28;19986;-81
2023/10/29 00:35:13;;;;;;;;;;;;;;;;;;5006053;28;19948;-84
2023/10/29 00:37:39;;;;;;;;;;;;;;;;;;5008836;28;20431;-84
2023/10/29 00:40:05;;;;;;;;;;;;;;;;;;4993992;28;19935;-84
2023/10/29 00:42:30;;;;;;;;;;;;;;;;;;5005465;28;20236;-84
2023/10/29 00:44:57;;;;;;;;;;;;;;;;;;5002728;28;19929;-81
2023/10/29 00:47:22;;;;;;;;;;;;;;;;;;5008386;28;19929;-84
2023/10/29 00:49:48;;;;;;;;;;;;;;;;;;5008622;28;19948;-82
2023/10/29 00:52:14;;;;;;;;;;;;;;;;;;5008503;28;19929;-84
2023/10/29 00:54:40;;;;;;;;;;;;;;;;;;4990028;28;20062;-83
2023/10/29 00:57:06;;;;;;;;;;;;;;;;;;5006598;28;19925;-83
2023/10/29 00:59:32;;;;;;;;;;;;;;;;;;5004291;28;19929;-82
2023/10/29 01:01:58;;;;;;;;;;;;;;;;;;5020699;28;19979;-83
2023/10/29 01:04:24;;;;;;;;;;;;;;;;;;5007156;28;20391;-83
2023/10/29 01:06:50;;;;;;;;;;;;;;;;;;5007511;28;19937;-83
2023/10/29 01:09:16;;;;;;;;;;;;;;;;;;5018755;28;19936;-83
2023/10/29 01:11:42;;;;;;;;;;;;;;;;;;5008914;28;20008;-84
2023/10/29 01:14:08;;;;;;;;;;;;;;;;;;4991762;28;19929;-83
2023/10/29 01:16:33;;;;;;;;;;;;;;;;;;5006990;28;20364;-84
2023/10/29 01:18:59;;;;;;;;;;;;;;;;;;4993464;28;19947;-83
2023/10/29 01:21:25;;;;;;;;;;;;;;;;;;5008037;28;19929;-83
2023/10/29 01:23:51;;;;;;;;;;;;;;;;;;5007955;28;20007;-82
2023/10/29 01:26:23;;;;;;;;;;;;;;;;;;5013753;28;19929;-81
2023/10/29 01:28:48;;;;;;;;;;;;;;;;;;5006891;28;20351;-83
2023/10/29 01:31:14;;;;;;;;;;;;;;;;;;4988173;28;19929;-84
2023/10/29 01:33:40;;;;;;;;;;;;;;;;;;5008153;28;19929;-83
2023/10/29 01:36:06;;;;;;;;;;;;;;;;;;4991315;28;20012;-83
2023/10/29 01:38:32;;;;;;;;;;;;;;;;;;4990209;28;20031;-82
2023/10/29 01:40:58;;;;;;;;;;;;;;;;;;5005043;28;19936;-82
2023/10/29 01:43:24;;;;;;;;;;;;;;;;;;5034712;28;19929;-84
2023/10/29 01:45:50;;;;;;;;;;;;;;;;;;5009513;28;19948;-82
2023/10/29 01:48:16;;;;;;;;;;;;;;;;;;5005294;28;20289;-83
2023/10/29 01:50:43;;;;;;;;;;;;;;;;;;5009326;28;19933;-83
2023/10/29 01:53:09;;;;;;;;;;;;;;;;;;5004861;28;19969;-82
2023/10/29 01:55:35;;;;;;;;;;;;;;;;;;5007423;28;20520;-83
2023/10/29 01:58:01;;;;;;;;;;;;;;;;;;5011186;28;19931;-82
2023/10/29 02:00:27;;;;;;;;;;;;;;;;;;4993627;28;19984;-83
2023/10/29 02:02:53;;;;;;;;;;;;;;;;;;5004909;28;20024;-83
2023/10/29 02:05:19;;;;;;;;;;;;;;;;;;4999952;28;19925;-82
2023/10/29 02:07:45;;;;;;;;;;;;;;;;;;5006384;28;19936;-83
2023/10/29 02:10:11;;;;;;;;;;;;;;;;;;4998441;28;20442;-82
2023/10/29 02:12:37;;;;;;;;;;;;;;;;;;5007212;28;19926;-82
2023/10/29 02:15:04;;;;;;;;;;;;;;;;;;4992863;28;19980;-83
2023/10/29 02:17:30;;;;;;;;;;;;;;;;;;5031889;28;19968;-81
2023/10/29 02:19:57;;;;;;;;;;;;;;;;;;4991767;28;19960;-82
2023/10/29 02:22:23;;;;;;;;;;;;;;;;;;4992815;28;19933;-83
2023/10/29 02:24:49;;;;;;;;;;;;;;;;;;5007395;28;19935;-83
2023/10/29 02:27:15;;;;;;;;;;;;;;;;;;5007650;28;19925;-83
2023/10/29 02:29:41;;;;;;;;;;;;;;;;;;4991130;28;19928;-82
2023/10/29 02:32:07;;;;;;;;;;;;;;;;;;5011152;28;19928;-83
2023/10/29 02:34:33;;;;;;;;;;;;;;;;;;5010917;28;19937;-83
2023/10/29 02:36:59;;;;;;;;;;;;;;;;;;5010129;28;19925;-84
2023/10/29 02:39:24;;;;;;;;;;;;;;;;;;5012980;28;19964;-83
2023/10/29 02:41:50;;;;;;;;;;;;;;;;;;5003901;28;19932;-83
2023/10/29 02:44:16;;;;;;;;;;;;;;;;;;5007771;28;20470;-83
2023/10/29 02:46:42;;;;;;;;;;;;;;;;;;5003961;28;19979;-84
2023/10/29 02:49:08;;;;;;;;;;;;;;;;;;5003913;28;19933;-84
2023/10/29 02:51:34;;;;;;;;;;;;;;;;;;5010198;28;19972;-83
2023/10/29 02:54:00;;;;;;;;;;;;;;;;;;5016147;28;19935;-84
2023/10/29 02:56:26;;;;;;;;;;;;;;;;;;4991542;28;19968;-83
2023/10/29 02:58:52;;;;;;;;;;;;;;;;;;5005691;28;20672;-83
2023/10/29 03:01:18;;;;;;;;;;;;;;;;;;5005171;28;19930;-83
2023/10/29 03:03:44;;;;;;;;;;;;;;;;;;5003829;28;19936;-83
2023/10/29 03:06:10;;;;;;;;;;;;;;;;;;5007715;28;19944;-83
2023/10/29 03:08:36;;;;;;;;;;;;;;;;;;5012561;28;19925;-84
2023/10/29 03:11:02;;;;;;;;;;;;;;;;;;5040636;28;19925;-83
2023/10/29 03:13:28;;;;;;;;;;;;;;;;;;4995230;28;19935;-83
2023/10/29 03:15:55;;;;;;;;;;;;;;;;;;5013479;28;20434;-84
2023/10/29 03:18:21;;;;;;;;;;;;;;;;;;5007642;28;20280;-83
2023/10/29 03:20:46;;;;;;;;;;;;;;;;;;5005832;28;20020;-84
2023/10/29 03:23:12;;;;;;;;;;;;;;;;;;5006381;28;19937;-83
2023/10/29 03:25:38;;;;;;;;;;;;;;;;;;5002966;28;19930;-84
2023/10/29 03:28:04;;;;;;;;;;;;;;;;;;5006158;28;19929;-83
2023/10/29 03:30:30;;;;;;;;;;;;;;;;;;5005549;28;19929;-82
2023/10/29 03:33:00;;;;;;;;;;;;;;;;;;4989145;28;19988;-83
2023/10/29 03:35:26;;;;;;;;;;;;;;;;;;4996846;28;19929;-83
2023/10/29 03:37:52;;;;;;;;;;;;;;;;;;4988889;28;21575;-83
2023/10/29 03:40:18;;;;;;;;;;;;;;;;;;5024969;28;19929;-84
2023/10/29 03:42:44;;;;;;;;;;;;;;;;;;4997107;28;19975;-83
2023/10/29 03:45:10;;;;;;;;;;;;;;;;;;4992746;28;19929;-84
2023/10/29 03:47:36;;;;;;;;;;;;;;;;;;5004291;28;19940;-83
2023/10/29 03:50:02;;;;;;;;;;;;;;;;;;5007941;28;20030;-84
2023/10/29 03:52:28;;;;;;;;;;;;;;;;;;5005855;28;20732;-83
2023/10/29 03:54:54;;;;;;;;;;;;;;;;;;5004868;28;19929;-84
2023/10/29 03:57:20;;;;;;;;;;;;;;;;;;5003761;28;19925;-82
2023/10/29 03:59:46;;;;;;;;;;;;;;;;;;4989380;28;19933;-84
2023/10/29 04:02:12;;;;;;;;;;;;;;;;;;4988847;28;19929;-83
2023/10/29 04:04:38;;;;;;;;;;;;;;;;;;4990197;28;19925;-83
2023/10/29 04:07:04;;;;;;;;;;;;;;;;;;4991202;28;19929;-84
2023/10/29 04:09:29;;;;;;;;;;;;;;;;;;5005858;28;19925;-83
2023/10/29 04:11:55;;;;;;;;;;;;;;;;;;5008031;28;20371;-83
2023/10/29 04:14:21;;;;;;;;;;;;;;;;;;5005047;28;19925;-84
2023/10/29 04:16:47;;;;;;;;;;;;;;;;;;4990237;28;19929;-84
2023/10/29 04:19:13;;;;;;;;;;;;;;;;;;5000975;28;19929;-84
2023/10/29 04:21:39;;;;;;;;;;;;;;;;;;5024200;28;19929;-83
2023/10/29 04:24:05;;;;;;;;;;;;;;;;;;5023113;28;19933;-84
2023/10/29 04:26:31;;;;;;;;;;;;;;;;;;5003830;28;20396;-82
2023/10/29 04:28:57;;;;;;;;;;;;;;;;;;5006443;28;19936;-84
2023/10/29 04:31:23;;;;;;;;;;;;;;;;;;5003591;28;19933;-83
2023/10/29 04:33:49;;;;;;;;;;;;;;;;;;5012079;28;19975;-83
2023/10/29 04:36:15;;;;;;;;;;;;;;;;;;5011939;28;20467;-84
2023/10/29 04:38:41;;;;;;;;;;;;;;;;;;4999785;28;19925;-84
2023/10/29 04:41:07;;;;;;;;;;;;;;;;;;5014853;28;19928;-84
2023/10/29 04:43:33;;;;;;;;;;;;;;;;;;5008341;28;19943;-83
2023/10/29 04:46:01;;;;;;;;;;;;;;;;;;5011457;28;20307;-84
2023/10/29 04:48:27;;;;;;;;;;;;;;;;;;5014333;28;20019;-84
2023/10/29 04:50:53;;;;;;;;;;;;;;;;;;5003412;28;20004;-83
2023/10/29 04:53:19;;;;;;;;;;;;;;;;;;5003451;28;19935;-83
2023/10/29 04:55:45;;;;;;;;;;;;;;;;;;5005798;28;20492;-85
2023/10/29 04:58:11;;;;;;;;;;;;;;;;;;5003656;28;19925;-85
2023/10/29 05:00:37;;;;;;;;;;;;;;;;;;5014202;28;19976;-84
2023/10/29 05:03:03;;;;;;;;;;;;;;;;;;5009000;28;19931;-83
2023/10/29 05:05:30;;;;;;;;;;;;;;;;;;4996094;28;19924;-83
2023/10/29 05:07:56;;;;;;;;;;;;;;;;;;5033493;28;20316;-83
2023/10/29 05:10:25;;;;;;;;;;;;;;;;;;5011036;28;19925;-84
2023/10/29 05:12:50;;;;;;;;;;;;;;;;;;5018647;28;19925;-83
2023/10/29 05:15:17;;;;;;;;;;;;;;;;;;4995145;28;20315;-82
2023/10/29 05:17:43;;;;;;;;;;;;;;;;;;5014677;28;19940;-83
2023/10/29 05:20:10;;;;;;;;;;;;;;;;;;5008859;28;19929;-83
2023/10/29 05:22:36;;;;;;;;;;;;;;;;;;5000498;28;19951;-82
2023/10/29 05:25:02;;;;;;;;;;;;;;;;;;5006936;28;20377;-83
2023/10/29 05:27:28;;;;;;;;;;;;;;;;;;4995397;28;19928;-83
2023/10/29 05:29:54;;;;;;;;;;;;;;;;;;5020598;28;19929;-84
2023/10/29 05:32:20;;;;;;;;;;;;;;;;;;5003249;28;19951;-83
2023/10/29 05:34:46;;;;;;;;;;;;;;;;;;4972165;28;19937;-81
2023/10/29 05:37:11;;;;;;;;;;;;;;;;;;4989215;28;20003;-83
2023/10/29 05:39:37;;;;;;;;;;;;;;;;;;4993506;28;19929;-84
2023/10/29 05:42:03;;;;;;;;;;;;;;;;;;4985258;28;19929;-84
2023/10/29 05:44:29;;;;;;;;;;;;;;;;;;4985050;28;19929;-83
2023/10/29 05:46:55;;;;;;;;;;;;;;;;;;4986640;28;19925;-83
2023/10/29 05:49:21;;;;;;;;;;;;;;;;;;4964783;28;19984;-84
2023/10/29 05:51:47;;;;;;;;;;;;;;;;;;4993085;28;20409;-82
2023/10/29 05:54:13;;;;;;;;;;;;;;;;;;4991832;28;19929;-83
2023/10/29 05:56:39;;;;;;;;;;;;;;;;;;4979938;28;19969;-83
2023/10/29 05:59:05;;;;;;;;;;;;;;;;;;4991277;28;20088;-83
2023/10/29 06:01:31;;;;;;;;;;;;;;;;;;4998865;28;20299;-84
2023/10/29 06:03:56;;;;;;;;;;;;;;;;;;4996278;28;19929;-85
2023/10/29 06:06:22;;;;;;;;;;;;;;;;;;4980290;28;19932;-84
2023/10/29 06:08:48;;;;;;;;;;;;;;;;;;4980830;28;20312;-84
2023/10/29 06:11:14;;;;;;;;;;;;;;;;;;4996747;28;19930;-83
2023/10/29 06:13:43;;;;;;;;;;;;;;;;;;4971415;28;19999;-83
2023/10/29 06:16:09;;;;;;;;;;;;;;;;;;4987713;28;19933;-82
2023/10/29 06:18:35;;;;;;;;;;;;;;;;;;4993766;28;19930;-83
2023/10/29 06:21:01;;;;;;;;;;;;;;;;;;4990790;28;19932;-83
2023/10/29 06:23:27;;;;;;;;;;;;;;;;;;4975504;28;19929;-84
2023/10/29 06:25:53;;;;;;;;;;;;;;;;;;5014495;28;19969;-83
2023/10/29 06:28:19;;;;;;;;;;;;;;;;;;4998417;28;19951;-83
2023/10/29 06:30:45;;;;;;;;;;;;;;;;;;4997588;28;20408;-83
2023/10/29 06:33:11;;;;;;;;;;;;;;;;;;4988701;28;19940;-85
2023/10/29 06:35:36;;;;;;;;;;;;;;;;;;4992053;28;20059;-83
2023/10/29 06:38:02;;;;;;;;;;;;;;;;;;4986066;28;19950;-84
2023/10/29 06:40:28;;;;;;;;;;;;;;;;;;4980975;28;19929;-85
2023/10/29 06:42:54;;;;;;;;;;;;;;;;;;4996353;28;19972;-84
2023/10/29 06:45:21;;;;;;;;;;;;;;;;;;5009825;28;20024;-84
2023/10/29 06:47:47;;;;;;;;;;;;;;;;;;4999631;28;19939;-83
2023/10/29 06:50:13;;;;;;;;;;;;;;;;;;5018916;28;20322;-84
2023/10/29 06:52:39;;;;;;;;;;;;;;;;;;5006478;28;19979;-84
2023/10/29 06:55:06;;;;;;;;;;;;;;;;;;4993462;28;19940;-83
2023/10/29 06:57:32;;;;;;;;;;;;;;;;;;5019535;28;20329;-84
2023/10/29 07:00:01;;;;;;;;;;;;;;;;;;5005980;28;20388;-82
2023/10/29 07:02:27;;;;;;;;;;;;;;;;;;5030310;28;19932;-83
2023/10/29 07:04:53;;;;;;;;;;;;;;;;;;5000508;28;19929;-83
2023/10/29 07:07:19;;;;;;;;;;;;;;;;;;4994342;28;19944;-84
2023/10/29 07:09:45;;;;;;;;;;;;;;;;;;5023183;28;20015;-84
2023/10/29 07:12:11;;;;;;;;;;;;;;;;;;4992056;28;19929;-81
2023/10/29 07:14:37;;;;;;;;;;;;;;;;;;5012623;28;19925;-83
2023/10/29 07:17:03;;;;;;;;;;;;;;;;;;5004220;28;19929;-85
2023/10/29 07:19:29;;;;;;;;;;;;;;;;;;5003790;28;19964;-83
2023/10/29 07:21:55;;;;;;;;;;;;;;;;;;4985202;28;19980;-83
2023/10/29 07:24:21;;;;;;;;;;;;;;;;;;5006132;28;19929;-84
2023/10/29 07:26:47;;;;;;;;;;;;;;;;;;5001992;28;19952;-84
2023/10/29 07:29:13;;;;;;;;;;;;;;;;;;5013001;28;19924;-84
2023/10/29 07:31:39;;;;;;;;;;;;;;;;;;5028729;28;19951;-84
2023/10/29 07:34:05;;;;;;;;;;;;;;;;;;5013844;28;19929;-84
2023/10/29 07:36:31;;;;;;;;;;;;;;;;;;5006447;28;19941;-82
2023/10/29 07:38:57;;;;;;;;;;;;;;;;;;5012020;28;19925;-82
2023/10/29 07:41:23;;;;;;;;;;;;;;;;;;5009038;28;19929;-84
2023/10/29 07:43:49;;;;;;;;;;;;;;;;;;4996630;28;20514;-83
2023/10/29 07:46:15;;;;;;;;;;;;;;;;;;5010544;28;19941;-83
2023/10/29 07:48:44;;;;;;;;;;;;;;;;;;4983624;28;19933;-81
2023/10/29 07:51:11;;;;;;;;;;;;;;;;;;4997665;28;20821;-83
2023/10/29 07:53:37;;;;;;;;;;;;;;;;;;5023741;28;20296;-82
2023/10/29 07:56:06;;;;;;;;;;;;;;;;;;5023624;28;20041;-83
2023/10/29 07:58:31;;;;;;;;;;;;;;;;;;5005429;28;19929;-83
2023/10/29 08:00:57;;;;;;;;;;;;;;;;;;5011320;28;19931;-83
2023/10/29 08:03:24;;;;;;;;;;;;;;;;;;4993547;28;19929;-83
2023/10/29 08:05:59;;;;;;;;;;;;;;;;;;5006525;28;20471;-84
2023/10/29 08:11:21;;;;;;;;;;;;;;;;;;5025117;28;19929;-83
2023/10/29 08:13:50;;;;;;;;;;;;;;;;;;5005357;28;19929;-82
2023/10/29 08:16:18;;;;;;;;;;;;;;;;;;4991601;28;19937;-81
2023/10/29 08:18:50;;;;;;;;;;;;;;;;;;5029647;28;20429;-83
2023/10/29 08:21:17;;;;;;;;;;;;;;;;;;4991993;28;19929;-82
2023/10/29 08:23:43;;;;;;;;;;;;;;;;;;5015935;28;19933;-83
2023/10/29 08:26:09;;;;;;;;;;;;;;;;;;5007806;28;19929;-83
2023/10/29 08:28:35;;;;;;;;;;;;;;;;;;5004270;28;19925;-83
2023/10/29 08:31:01;;;;;;;;;;;;;;;;;;5022547;28;19935;-83
2023/10/29 08:33:34;;;;;;;;;;;;;;;;;;5000188;28;19936;-81
2023/10/29 08:36:00;;;;;;;;;;;;;;;;;;4997162;28;19935;-84
2023/10/29 08:38:29;;;;;;;;;;;;;;;;;;5023394;28;19941;-83
2023/10/29 08:41:01;;;;;;;;;;;;;;;;;;4986895;28;20754;-83
2023/10/29 08:43:27;;;;;;;;;;;;;;;;;;5005131;28;19929;-82
2023/10/29 08:45:53;;;;;;;;;;;;;;;;;;5009464;28;19933;-81
2023/10/29 08:48:19;;;;;;;;;;;;;;;;;;4999837;28;19929;-81
2023/10/29 08:50:50;;;;;;;;;;;;;;;;;;5020647;28;19964;-81
2023/10/29 08:53:16;;;;;;;;;;;;;;;;;;5021065;28;22343;-81
2023/10/29 08:55:42;;;;;;;;;;;;;;;;;;5001845;28;19937;-80
2023/10/29 08:58:09;;;;;;;;;;;;;;;;;;5019488;28;19929;-83
2023/10/29 09:00:35;;;;;;;;;;;;;;;;;;5008726;28;20020;-81
2023/10/29 09:03:01;;;;;;;;;;;;;;;;;;5033854;28;20035;-78
2023/10/29 09:05:27;;;;;;;;;;;;;;;;;;5014069;28;20407;-80
2023/10/29 09:07:53;;;;;;;;;;;;;;;;;;5001696;28;19947;-82
2023/10/29 09:10:19;;;;;;;;;;;;;;;;;;5025395;28;20420;-82
2023/10/29 09:12:45;;;;;;;;;;;;;;;;;;4992458;28;19929;-81
2023/10/29 09:15:12;;;;;;;;;;;;;;;;;;5000523;28;21019;-81
2023/10/29 09:17:37;;;;;;;;;;;;;;;;;;5011234;28;19933;-83
2023/10/29 09:20:03;;;;;;;;;;;;;;;;;;5031694;28;19951;-81
2023/10/29 09:22:29;;;;;;;;;;;;;;;;;;4991715;28;20008;-82
2023/10/29 09:24:56;;;;;;;;;;;;;;;;;;5024228;28;20048;-82
2023/10/29 09:27:24;;;;;;;;;;;;;;;;;;5016397;28;19929;-81
2023/10/29 09:29:50;;;;;;;;;;;;;;;;;;5017194;28;19929;-80
2023/10/29 09:32:16;;;;;;;;;;;;;;;;;;5020281;28;19929;-80
2023/10/29 09:34:42;;;;;;;;;;;;;;;;;;5017909;28;19979;-78
2023/10/29 09:37:08;;;;;;;;;;;;;;;;;;5018083;28;19925;-80
2023/10/29 09:39:34;;;;;;;;;;;;;;;;;;5021279;28;20369;-81
2023/10/29 09:42:21;;;;;;;;;;;;;;;;;;4989371;28;19988;-78
2023/10/29 09:44:49;;;;;;;;;;;;;;;;;;4995208;28;19933;-81
2023/10/29 09:47:18;;;;;;;;;;;;;;;;;;5029979;28;19929;-80
2023/10/29 09:49:47;;;;;;;;;;;;;;;;;;5022634;28;19930;-80
2023/10/29 09:52:13;;;;;;;;;;;;;;;;;;5025189;28;19929;-79
2023/10/29 09:54:39;;;;;;;;;;;;;;;;;;5024973;28;19929;-83
2023/10/29 09:57:06;;;;;;;;;;;;;;;;;;5018373;28;20006;-78
2023/10/29 09:59:32;;;;;;;;;;;;;;;;;;5032709;28;19983;-79
2023/10/29 10:01:57;;;;;;;;;;;;;;;;;;5028231;28;19929;-78
2023/10/29 10:04:23;;;;;;;;;;;;;;;;;;5031109;28;20640;-77
2023/10/29 10:06:49;;;;;;;;;;;;;;;;;;5027322;28;19939;-78
2023/10/29 10:09:15;;;;;;;;;;;;;;;;;;5000561;28;20475;-77
2023/10/29 10:11:41;;;;;;;;;;;;;;;;;;5033106;28;20043;-81
2023/10/29 10:14:07;;;;;;;;;;;;;;;;;;5006649;28;19931;-81
2023/10/29 10:16:36;;;;;;;;;;;;;;;;;;5007467;28;19984;-82
2023/10/29 10:19:02;;;;;;;;;;;;;;;;;;5019910;28;20000;-79
2023/10/29 10:21:28;;;;;;;;;;;;;;;;;;5022618;28;20403;-80
2023/10/29 10:23:57;;;;;;;;;;;;;;;;;;5024061;28;19925;-81
2023/10/29 10:26:23;;;;;;;;;;;;;;;;;;5007017;28;19937;-81
2023/10/29 10:28:49;;;;;;;;;;;;;;;;;;4993679;28;19929;-79
2023/10/29 10:31:15;;;;;;;;;;;;;;;;;;5025295;28;19929;-82
2023/10/29 10:33:41;;;;;;;;;;;;;;;;;;5011012;28;19937;-80
2023/10/29 10:36:06;;;;;;;;;;;;;;;;;;5031903;28;19935;-80
2023/10/29 10:38:32;;;;;;;;;;;;;;;;;;5029192;28;20007;-80
2023/10/29 10:40:58;;;;;;;;;;;;;;;;;;5026558;28;20014;-82
2023/10/29 10:43:26;;;;;;;;;;;;;;;;;;5027854;28;19933;-81
2023/10/29 10:45:52;;;;;;;;;;;;;;;;;;5009175;28;20396;-80
2023/10/29 10:48:18;;;;;;;;;;;;;;;;;;5018620;28;19961;-81
2023/10/29 10:50:44;;;;;;;;;;;;;;;;;;4996227;28;20423;-80
2023/10/29 10:53:10;;;;;;;;;;;;;;;;;;5017099;28;19968;-82
2023/10/29 10:55:37;;;;;;;;;;;;;;;;;;5010845;28;20024;-80
2023/10/29 10:58:03;;;;;;;;;;;;;;;;;;5010015;28;20307;-81
2023/10/29 11:00:29;;;;;;;;;;;;;;;;;;5011989;28;19928;-80
2023/10/29 11:02:55;;;;;;;;;;;;;;;;;;5026090;28;19921;-79
2023/10/29 11:05:21;;;;;;;;;;;;;;;;;;5018665;28;19940;-78
2023/10/29 11:07:47;;;;;;;;;;;;;;;;;;5015062;28;20376;-81
2023/10/29 11:10:13;;;;;;;;;;;;;;;;;;5006694;28;19933;-78
2023/10/29 11:12:39;;;;;;;;;;;;;;;;;;5000549;28;20003;-78
2023/10/29 11:15:05;;;;;;;;;;;;;;;;;;5025986;28;19932;-79
2023/10/29 11:17:30;;;;;;;;;;;;;;;;;;5006439;28;19928;-81
2023/10/29 11:19:58;;;;;;;;;;;;;;;;;;5024921;28;19929;-80
2023/10/29 11:22:29;;;;;;;;;;;;;;;;;;5021201;28;19968;-81
2023/10/29 11:24:55;;;;;;;;;;;;;;;;;;5020584;28;19933;-81
2023/10/29 11:27:21;;;;;;;;;;;;;;;;;;5031472;28;19940;-81
2023/10/29 11:29:47;;;;;;;;;;;;;;;;;;5024406;28;19929;-79
2023/10/29 11:32:12;;;;;;;;;;;;;;;;;;5006872;28;19929;-80
2023/10/29 11:34:38;;;;;;;;;;;;;;;;;;5016254;28;19925;-80
2023/10/29 11:37:04;;;;;;;;;;;;;;;;;;5024371;28;20332;-81
2023/10/29 11:39:31;;;;;;;;;;;;;;;;;;5033174;28;20031;-81
2023/10/29 11:41:57;;;;;;;;;;;;;;;;;;5026176;28;20387;-80
2023/10/29 11:44:24;;;;;;;;;;;;;;;;;;5031177;28;19929;-80
2023/10/29 11:46:50;;;;;;;;;;;;;;;;;;5026055;28;20024;-80
2023/10/29 11:49:16;;;;;;;;;;;;;;;;;;5024152;28;20055;-80
2023/10/29 11:51:42;;;;;;;;;;;;;;;;;;5022869;28;20036;-81
2023/10/29 11:54:08;;;;;;;;;;;;;;;;;;5025927;28;19997;-81
2023/10/29 11:56:34;;;;;;;;;;;;;;;;;;5023079;28;19949;-80
2023/10/29 11:59:00;;;;;;;;;;;;;;;;;;5023832;28;19952;-81
2023/10/29 12:01:26;;;;;;;;;;;;;;;;;;4997155;28;19929;-81
2023/10/29 12:03:52;;;;;;;;;;;;;;;;;;5029220;28;19968;-80
2023/10/29 12:06:17;;;;;;;;;;;;;;;;;;5004842;28;20008;-80
2023/10/29 12:08:43;;;;;;;;;;;;;;;;;;5008019;28;19965;-80
2023/10/29 12:11:09;;;;;;;;;;;;;;;;;;5025380;28;19988;-80
2023/10/29 12:13:35;;;;;;;;;;;;;;;;;;5021500;28;19979;-81
2023/10/29 12:16:01;;;;;;;;;;;;;;;;;;5027431;28;19932;-80
2023/10/29 12:18:27;;;;;;;;;;;;;;;;;;5013731;28;20639;-80
2023/10/29 12:20:53;;;;;;;;;;;;;;;;;;5016724;28;20014;-80
2023/10/29 12:23:19;;;;;;;;;;;;;;;;;;4993642;28;19968;-80
2023/10/29 12:25:45;;;;;;;;;;;;;;;;;;5019708;28;20412;-81
2023/10/29 12:28:11;;;;;;;;;;;;;;;;;;5003795;28;19929;-81
2023/10/29 12:30:37;;;;;;;;;;;;;;;;;;5017642;28;20000;-80
2023/10/29 12:33:03;;;;;;;;;;;;;;;;;;5020397;28;20440;-80
2023/10/29 12:35:28;;;;;;;;;;;;;;;;;;5018045;28;20019;-80
2023/10/29 12:37:55;;;;;;;;;;;;;;;;;;4984795;28;20300;-81
2023/10/29 12:40:20;;;;;;;;;;;;;;;;;;5004856;28;19930;-79
2023/10/29 12:42:46;;;;;;;;;;;;;;;;;;5002974;28;19929;-80
2023/10/29 12:45:12;;;;;;;;;;;;;;;;;;5017407;28;20015;-81
2023/10/29 12:47:38;;;;;;;;;;;;;;;;;;5018699;28;19929;-80
2023/10/29 12:50:04;;;;;;;;;;;;;;;;;;5018551;28;20089;-79
2023/10/29 12:52:30;;;;;;;;;;;;;;;;;;5021355;28;20059;-79
2023/10/29 12:54:56;;;;;;;;;;;;;;;;;;5003127;28;19929;-80
2023/10/29 12:57:22;;;;;;;;;;;;;;;;;;4999240;28;20761;-81
2023/10/29 12:59:48;;;;;;;;;;;;;;;;;;5016731;28;19955;-80
2023/10/29 13:02:14;;;;;;;;;;;;;;;;;;5010009;28;20022;-80
2023/10/29 13:04:40;;;;;;;;;;;;;;;;;;5022604;28;20324;-81
2023/10/29 13:07:11;;;;;;;;;;;;;;;;;;5024594;28;20413;-81
2023/10/29 13:09:37;;;;;;;;;;;;;;;;;;5012799;28;19930;-81
2023/10/29 13:12:06;;;;;;;;;;;;;;;;;;5025770;28;20060;-81
2023/10/29 13:14:36;;;;;;;;;;;;;;;;;;5025649;28;19925;-78
2023/10/29 13:17:05;;;;;;;;;;;;;;;;;;4997664;28;19928;-82
2023/10/29 13:19:31;;;;;;;;;;;;;;;;;;5024660;28;19963;-80
2023/10/29 13:21:56;;;;;;;;;;;;;;;;;;5026564;28;20813;-79
2023/10/29 13:24:22;;;;;;;;;;;;;;;;;;5030329;28;19929;-81
2023/10/29 13:26:48;;;;;;;;;;;;;;;;;;5026003;28;19925;-81
2023/10/29 13:29:15;;;;;;;;;;;;;;;;;;5022465;28;19929;-79
2023/10/29 13:31:41;;;;;;;;;;;;;;;;;;5019712;28;19979;-80
2023/10/29 13:34:08;;;;;;;;;;;;;;;;;;5015098;28;20189;-80
2023/10/29 13:36:34;;;;;;;;;;;;;;;;;;5018579;28;20032;-80
2023/10/29 13:39:02;;;;;;;;;;;;;;;;;;5027265;28;19948;-81
2023/10/29 13:41:28;;;;;;;;;;;;;;;;;;4996733;28;19941;-79
2023/10/29 13:43:54;;;;;;;;;;;;;;;;;;5016507;28;20020;-80
2023/10/29 13:46:20;;;;;;;;;;;;;;;;;;5015303;28;20267;-80
2023/10/29 13:48:48;;;;;;;;;;;;;;;;;;4988920;28;19988;-80
2023/10/29 13:51:14;;;;;;;;;;;;;;;;;;5022384;28;22128;-80
2023/10/29 13:53:40;;;;;;;;;;;;;;;;;;5001757;28;19983;-80
2023/10/29 13:56:06;;;;;;;;;;;;;;;;;;5013028;28;19929;-80
2023/10/29 13:58:32;;;;;;;;;;;;;;;;;;5025210;28;20403;-80
2023/10/29 14:00:58;;;;;;;;;;;;;;;;;;5030354;28;20869;-80
2023/10/29 14:03:24;;;;;;;;;;;;;;;;;;5023733;28;19937;-79
2023/10/29 14:05:50;;;;;;;;;;;;;;;;;;5033636;28;19933;-80
2023/10/29 14:08:16;;;;;;;;;;;;;;;;;;5031590;28;19929;-81
2023/10/29 14:10:42;;;;;;;;;;;;;;;;;;5012911;28;19940;-80
2023/10/29 14:13:08;;;;;;;;;;;;;;;;;;5009439;28;19930;-78
2023/10/29 14:15:34;;;;;;;;;;;;;;;;;;5020127;28;20011;-80
2023/10/29 14:18:00;;;;;;;;;;;;;;;;;;5019900;28;19936;-80
2023/10/29 14:20:26;;;;;;;;;;;;;;;;;;5017481;28;20402;-79
2023/10/29 14:22:53;;;;;;;;;;;;;;;;;;5018405;28;19944;-80
2023/10/29 14:25:19;;;;;;;;;;;;;;;;;;5020311;28;19925;-80
2023/10/29 14:27:45;;;;;;;;;;;;;;;;;;5031536;28;19944;-80
2023/10/29 14:30:11;;;;;;;;;;;;;;;;;;5031875;28;19932;-80
2023/10/29 14:32:37;;;;;;;;;;;;;;;;;;5027351;28;19936;-79
2023/10/29 14:35:04;;;;;;;;;;;;;;;;;;5011033;28;19980;-80
2023/10/29 14:37:30;;;;;;;;;;;;;;;;;;5026852;28;20735;-79
2023/10/29 14:39:56;;;;;;;;;;;;;;;;;;5001722;28;19929;-81
2023/10/29 14:42:25;;;;;;;;;;;;;;;;;;5019953;28;20358;-79
2023/10/29 14:44:51;;;;;;;;;;;;;;;;;;5012360;28;20016;-80
2023/10/29 14:47:17;;;;;;;;;;;;;;;;;;5016548;28;19929;-81
2023/10/29 14:49:43;;;;;;;;;;;;;;;;;;5015375;28;19980;-80
2023/10/29 14:52:08;;;;;;;;;;;;;;;;;;5020433;28;20020;-80
2023/10/29 14:54:34;;;;;;;;;;;;;;;;;;5018399;28;20471;-80
2023/10/29 14:57:00;;;;;;;;;;;;;;;;;;5018998;28;19979;-80
2023/10/29 14:59:28;;;;;;;;;;;;;;;;;;4968855;28;20348;-82
2023/10/29 15:01:58;;;;;;;;;;;;;;;;;;5019621;28;20028;-80
2023/10/29 15:04:24;;;;;;;;;;;;;;;;;;4989794;28;19922;-79
2023/10/29 15:06:50;;;;;;;;;;;;;;;;;;5000007;28;19971;-80
2023/10/29 15:09:17;;;;;;;;;;;;;;;;;;4992097;28;19929;-80
2023/10/29 15:11:43;;;;;;;;;;;;;;;;;;4984654;28;19944;-80
2023/10/29 15:14:10;;;;;;;;;;;;;;;;;;4977716;28;20323;-80
2023/10/29 15:16:36;;;;;;;;;;;;;;;;;;4975791;28;19958;-81
2023/10/29 15:19:02;;;;;;;;;;;;;;;;;;4980609;28;19933;-80
2023/10/29 15:21:28;;;;;;;;;;;;;;;;;;5000278;28;19974;-79
2023/10/29 15:23:54;;;;;;;;;;;;;;;;;;4987136;28;19948;-79
2023/10/29 15:26:24;;;;;;;;;;;;;;;;;;5001450;28;20030;-80
2023/10/29 15:28:50;;;;;;;;;;;;;;;;;;4999828;28;19990;-80
2023/10/29 15:31:16;;;;;;;;;;;;;;;;;;5010073;28;19936;-80
2023/10/29 15:33:42;;;;;;;;;;;;;;;;;;5023619;28;19929;-80
2023/10/29 15:36:08;;;;;;;;;;;;;;;;;;4998681;28;19932;-80
2023/10/29 15:38:34;;;;;;;;;;;;;;;;;;5028055;28;19929;-80
2023/10/29 15:41:01;;;;;;;;;;;;;;;;;;5017289;28;19980;-80
2023/10/29 15:43:33;;;;;;;;;;;;;;;;;;4986997;28;19929;-80
2023/10/29 15:45:59;;;;;;;;;;;;;;;;;;5012210;28;20019;-81
2023/10/29 15:48:28;;;;;;;;;;;;;;;;;;5021059;28;20019;-81
2023/10/29 15:51:01;;;;;;;;;;;;;;;;;;4994967;28;20023;-81
2023/10/29 15:53:27;;;;;;;;;;;;;;;;;;4997216;28;20019;-80
2023/10/29 15:55:53;;;;;;;;;;;;;;;;;;5022128;28;19994;-80
2023/10/29 15:58:20;;;;;;;;;;;;;;;;;;5011547;28;20284;-79
2023/10/29 16:00:46;;;;;;;;;;;;;;;;;;5008260;28;20159;-79
2023/10/29 16:03:12;;;;;;;;;;;;;;;;;;5004593;28;20273;-79
2023/10/29 16:05:38;;;;;;;;;;;;;;;;;;5006592;28;20341;-80
2023/10/29 16:08:05;;;;;;;;;;;;;;;;;;4980857;28;19925;-80
2023/10/29 16:10:31;;;;;;;;;;;;;;;;;;4996988;28;21005;-79
2023/10/29 16:12:57;;;;;;;;;;;;;;;;;;4987430;28;19929;-79
2023/10/29 16:15:25;;;;;;;;;;;;;;;;;;4997410;28;20032;-79
2023/10/29 16:17:51;;;;;;;;;;;;;;;;;;5015990;28;20586;-79
2023/10/29 16:20:16;;;;;;;;;;;;;;;;;;5003805;28;19933;-79
2023/10/29 16:22:43;;;;;;;;;;;;;;;;;;4997187;28;19936;-79
2023/10/29 16:25:08;;;;;;;;;;;;;;;;;;5016916;28;20156;-80
2023/10/29 16:27:34;;;;;;;;;;;;;;;;;;5020861;28;20352;-80
2023/10/29 16:30:00;;;;;;;;;;;;;;;;;;5000286;28;19983;-80
2023/10/29 16:32:26;;;;;;;;;;;;;;;;;;5004427;28;19976;-80
2023/10/29 16:34:52;;;;;;;;;;;;;;;;;;4997225;28;19930;-80
2023/10/29 16:37:18;;;;;;;;;;;;;;;;;;4984631;28;20371;-79
2023/10/29 16:39:44;;;;;;;;;;;;;;;;;;5003232;28;19935;-80
2023/10/29 16:42:10;;;;;;;;;;;;;;;;;;5014948;28;20850;-80